Time;durP1;ratioP1;P1;durP2;ratioP2;P2;SDS_P1;SDS_P2;PMS_P1;PMS_P2;Temp;Humidity;BMP_temperature;BMP_pressure;BME280_temperature;BME280_humidity;BME280_pressure;Samples;Min_cycle;Max_cycle;Signal;HPM_P1;HPM_P2
2023/09/04 00:01:53;;;;;;;;;6.33;6.00;;;;;22.33;71.90;99988.22;5055378;28;45565;-79
2023/09/04 00:04:19;;;;;;;;;5.67;5.33;;;;;22.49;72.17;100012.63;5055917;28;46121;-77
2023/09/04 00:06:44;;;;;;;;;5.67;5.00;;;;;22.52;72.50;100015.19;5056505;28;45429;-77
2023/09/04 00:09:10;;;;;;;;;6.00;5.67;;;;;22.42;72.19;99995.94;5055274;28;45408;-78
2023/09/04 00:11:35;;;;;;;;;7.00;5.33;;;;;22.52;71.95;100012.53;5055633;28;45305;-77
2023/09/04 00:14:01;;;;;;;;;6.00;5.00;;;;;22.55;71.90;100016.00;5055832;28;46037;-78
2023/09/04 00:16:27;;;;;;;;;4.00;4.00;;;;;22.27;72.28;99970.63;5055349;28;45174;-77
2023/09/04 00:18:52;;;;;;;;;4.67;4.00;;;;;22.46;72.04;100002.06;5040184;28;45488;-78
2023/09/04 00:21:18;;;;;;;;;7.00;6.00;;;;;22.53;72.00;100015.16;5052394;28;45547;-78
2023/09/04 00:23:43;;;;;;;;;5.00;4.67;;;;;22.56;71.96;100011.53;5045706;28;46052;-77
2023/09/04 00:26:09;;;;;;;;;7.00;6.00;;;;;22.53;72.18;100008.97;5055789;28;45481;-78
2023/09/04 00:28:35;;;;;;;;;6.00;5.00;;;;;22.47;72.40;99998.50;5055762;28;45446;-77
2023/09/04 00:31:00;;;;;;;;;4.67;4.00;;;;;22.40;72.54;99982.69;5051170;28;45366;-78
2023/09/04 00:33:26;;;;;;;;;6.00;5.00;;;;;22.55;71.86;100004.47;5038743;28;46091;-78
2023/09/04 00:35:51;;;;;;;;;5.67;5.00;;;;;22.53;71.54;99991.19;5038571;28;45870;-77
2023/09/04 00:38:17;;;;;;;;;8.00;6.33;;;;;22.56;71.80;100009.78;5052822;28;45566;-77
2023/09/04 00:40:43;;;;;;;;;4.33;4.33;;;;;22.59;71.99;100008.78;5039764;28;45473;-78
2023/09/04 00:43:08;;;;;;;;;5.00;5.00;;;;;22.59;71.91;99984.84;5037544;28;45399;-77
2023/09/04 00:45:35;;;;;;;;;5.33;5.00;;;;;22.35;71.73;99965.13;5046593;28;45494;-77
2023/09/04 00:48:02;;;;;;;;;5.00;4.00;;;;;22.58;71.88;100004.38;5040109;28;45394;-77
2023/09/04 00:50:29;;;;;;;;;4.00;4.00;;;;;22.58;71.86;100001.72;5053449;28;45436;-78
2023/09/04 00:53:04;;;;;;;;;4.00;4.00;;;;;22.49;71.96;99978.03;5044729;28;45893;-78
2023/09/04 00:55:30;;;;;;;;;5.33;5.00;;;;;22.39;72.41;99983.59;5053128;28;45531;-77
2023/09/04 00:57:56;;;;;;;;;7.33;6.00;;;;;22.46;72.42;100004.72;5049057;28;45578;-77
2023/09/04 01:00:23;;;;;;;;;4.33;4.33;;;;;22.40;72.03;100003.09;5039105;28;45569;-77
2023/09/04 01:02:50;;;;;;;;;5.33;4.33;;;;;22.49;72.44;100007.31;5036421;28;46498;-78
2023/09/04 01:05:17;;;;;;;;;5.67;5.33;;;;;22.45;72.19;99993.22;5039431;28;45385;-78
2023/09/04 01:07:43;;;;;;;;;5.00;5.00;;;;;22.43;72.68;99995.03;5036442;28;45375;-78
2023/09/04 01:10:10;;;;;;;;;5.00;5.00;;;;;22.41;72.94;99989.75;5035977;28;45533;-78
2023/09/04 01:12:42;;;;;;;;;5.00;4.67;;;;;22.43;72.18;99984.41;5036568;28;45482;-78
2023/09/04 01:15:10;;;;;;;;;6.67;6.00;;;;;22.38;72.00;99992.53;5035920;28;45556;-77
2023/09/04 01:17:37;;;;;;;;;7.00;6.00;;;;;22.34;73.12;99993.53;5050040;28;45436;-78
2023/09/04 01:20:29;;;;;;;;;7.00;6.33;;;;;22.38;72.94;99992.53;5039676;28;45346;-78
2023/09/04 01:22:56;;;;;;;;;7.33;6.67;;;;;22.37;73.20;99985.44;5043499;28;46207;-77
2023/09/04 01:25:31;;;;;;;;;6.00;6.00;;;;;22.36;72.85;99989.03;5035997;28;45525;-77
2023/09/04 01:28:26;;;;;;;;;5.67;5.00;;;;;22.41;73.05;99988.88;5041219;28;45626;-77
2023/09/04 01:31:20;;;;;;;;;5.33;5.33;;;;;22.40;72.88;99977.38;5038402;28;45560;-78
2023/09/04 01:33:51;;;;;;;;;5.00;5.00;;;;;22.44;72.75;99959.50;5039049;28;46109;-77
2023/09/04 01:36:17;;;;;;;;;5.33;5.00;;;;;22.46;72.33;99968.31;5046024;28;45475;-77
2023/09/04 01:38:46;;;;;;;;;4.67;4.00;;;;;22.27;72.72;99925.41;5042330;28;45351;-76
2023/09/04 01:41:12;;;;;;;;;5.00;5.00;;;;;22.45;72.80;99953.28;5039896;28;45415;-77
2023/09/04 01:43:38;;;;;;;;;5.33;4.33;;;;;22.43;72.68;99948.00;5040768;28;45537;-77
2023/09/04 01:46:04;;;;;;;;;5.33;5.33;;;;;22.44;72.94;99951.53;5039880;28;45655;-77
2023/09/04 01:48:29;;;;;;;;;6.00;5.00;;;;;22.37;72.90;99932.22;5039898;28;45589;-77
2023/09/04 01:50:55;;;;;;;;;6.33;5.00;;;;;22.40;72.84;99932.13;5056723;28;45303;-78
2023/09/04 01:53:22;;;;;;;;;7.33;6.00;;;;;22.47;73.09;99938.16;5038686;28;46169;-78
2023/09/04 01:55:48;;;;;;;;;4.33;4.33;;;;;22.50;72.58;99924.75;5039392;28;45321;-78
2023/09/04 01:58:14;;;;;;;;;4.67;4.67;;;;;22.53;72.51;99942.44;5039475;28;45583;-78
2023/09/04 02:00:39;;;;;;;;;5.67;5.00;;;;;22.54;72.40;99915.78;5039228;28;45474;-78
2023/09/04 02:03:05;;;;;;;;;6.00;5.67;;;;;22.48;72.50;99928.38;5045793;28;46239;-78
2023/09/04 02:05:31;;;;;;;;;5.67;5.67;;;;;22.39;72.54;99910.88;5059379;28;45517;-78
2023/09/04 02:07:56;;;;;;;;;6.00;5.00;;;;;22.38;72.91;99904.69;5059207;28;45443;-78
2023/09/04 02:10:23;;;;;;;;;4.00;4.00;;;;;22.27;72.88;99866.00;5055570;28;45302;-78
2023/09/04 02:12:49;;;;;;;;;4.00;3.33;;;;;22.47;72.59;99916.00;5039046;28;45649;-78
2023/09/04 02:15:16;;;;;;;;;3.00;3.00;;;;;22.37;72.49;99886.13;5039268;28;45276;-78
2023/09/04 02:17:41;;;;;;;;;6.67;6.00;;;;;22.30;73.27;99877.41;5038977;28;45448;-77
2023/09/04 02:20:07;;;;;;;;;5.33;5.33;;;;;22.52;72.47;99908.72;5049496;28;45437;-78
2023/09/04 02:22:33;;;;;;;;;5.00;5.00;;;;;22.47;73.13;99894.69;5058524;28;46236;-78
2023/09/04 02:24:58;;;;;;;;;6.00;4.67;;;;;22.58;72.80;99914.75;5058829;28;45340;-78
2023/09/04 02:27:24;;;;;;;;;6.67;5.67;;;;;22.59;72.67;99903.19;5055207;28;45468;-77
2023/09/04 02:29:51;;;;;;;;;7.33;5.67;;;;;22.52;72.72;99898.09;5038770;28;45485;-78
2023/09/04 02:32:17;;;;;;;;;7.00;6.33;;;;;22.64;72.37;99895.03;5038542;28;46102;-78
2023/09/04 02:34:43;;;;;;;;;7.00;5.67;;;;;22.64;72.71;99887.06;5038680;28;45530;-78
2023/09/04 02:37:08;;;;;;;;;4.00;4.00;;;;;22.52;72.77;99884.78;5038626;28;45303;-78
2023/09/04 02:39:35;;;;;;;;;9.33;7.00;;;;;22.49;73.25;99892.88;5038458;28;45564;-78
2023/09/04 02:42:00;;;;;;;;;6.67;6.00;;;;;22.48;72.84;99904.41;5038331;28;45498;-78
2023/09/04 02:44:26;;;;;;;;;5.00;5.00;;;;;22.49;72.89;99891.06;5037947;28;45466;-78
2023/09/04 02:46:51;;;;;;;;;5.33;4.00;;;;;22.40;73.31;99870.94;5038395;28;45426;-78
2023/09/04 02:49:17;;;;;;;;;5.00;5.00;;;;;22.48;72.83;99869.81;5038167;28;45381;-78
2023/09/04 02:51:43;;;;;;;;;6.00;4.00;;;;;22.42;73.23;99850.47;5037571;28;46132;-77
2023/09/04 02:54:09;;;;;;;;;5.67;5.00;;;;;22.55;72.86;99876.72;5038198;28;45968;-77
2023/09/04 02:56:34;;;;;;;;;4.67;4.33;;;;;22.56;73.10;99860.69;5046630;28;45463;-80
2023/09/04 02:59:00;;;;;;;;;5.00;5.00;;;;;22.59;73.15;99871.22;5045110;28;45609;-79
2023/09/04 03:01:25;;;;;;;;;2.67;2.00;;;;;22.41;73.21;99859.34;5037714;28;46468;-79
2023/09/04 03:03:51;;;;;;;;;4.00;4.00;;;;;22.50;73.29;99873.31;5038192;28;45497;-79
2023/09/04 03:06:17;;;;;;;;;4.33;4.33;;;;;22.49;73.37;99876.91;5038088;28;45531;-78
2023/09/04 03:08:42;;;;;;;;;7.00;6.00;;;;;22.43;73.90;99862.84;5038385;28;45532;-79
2023/09/04 03:11:13;;;;;;;;;6.00;5.00;;;;;22.40;73.71;99884.25;5037768;28;45958;-79
2023/09/04 03:13:39;;;;;;;;;5.00;5.00;;;;;22.46;73.57;99874.31;5037816;28;45463;-79
2023/09/04 03:16:05;;;;;;;;;5.00;5.00;;;;;22.40;73.53;99873.59;5019356;28;45467;-79
2023/09/04 03:18:33;;;;;;;;;5.00;4.67;;;;;22.46;73.43;99885.81;5049430;28;45447;-79
2023/09/04 03:20:59;;;;;;;;;4.33;4.33;;;;;22.49;73.38;99882.22;5042029;28;46086;-79
2023/09/04 03:23:24;;;;;;;;;6.33;4.67;;;;;22.53;73.22;99875.88;5037702;28;45499;-80
2023/09/04 03:25:50;;;;;;;;;6.33;5.67;;;;;22.55;73.53;99884.69;5036143;28;45639;-79
2023/09/04 03:28:15;;;;;;;;;5.00;4.00;;;;;22.53;73.30;99873.22;5037798;28;45542;-79
2023/09/04 03:30:41;;;;;;;;;6.00;5.00;;;;;22.51;73.03;99867.94;5037627;28;45353;-79
2023/09/04 03:33:07;;;;;;;;;5.33;5.33;;;;;22.44;72.90;99853.06;5052710;28;45793;-79
2023/09/04 03:35:33;;;;;;;;;4.67;4.00;;;;;22.55;72.90;99850.09;5037366;28;45455;-79
2023/09/04 03:37:59;;;;;;;;;5.67;5.67;;;;;22.56;73.09;99860.69;5037637;28;45467;-80
2023/09/04 03:40:25;;;;;;;;;6.00;4.33;;;;;22.56;73.50;99867.78;5037117;28;45875;-79
2023/09/04 03:42:53;;;;;;;;;5.33;5.00;;;;;22.58;73.36;99876.59;5037424;28;45438;-80
2023/09/04 03:45:19;;;;;;;;;5.00;4.00;;;;;22.58;73.30;99879.25;5037201;28;45453;-79
2023/09/04 03:47:46;;;;;;;;;6.00;5.00;;;;;22.58;73.14;99888.16;5046654;28;45498;-79
2023/09/04 03:50:12;;;;;;;;;4.33;4.00;;;;;22.50;73.47;99857.34;5056965;28;45978;-79
2023/09/04 03:52:39;;;;;;;;;6.00;5.00;;;;;22.52;73.07;99860.81;5056763;28;45376;-79
2023/09/04 03:55:09;;;;;;;;;7.00;4.67;;;;;22.63;73.07;99872.03;5039172;28;45516;-79
2023/09/04 03:57:39;;;;;;;;;6.00;5.00;;;;;22.60;72.75;99869.44;5057659;28;45570;-79
2023/09/04 04:00:14;;;;;;;;;4.33;4.33;;;;;22.66;72.75;99873.72;5052035;28;45590;-79
2023/09/04 04:02:41;;;;;;;;;5.33;4.67;;;;;22.59;72.56;99849.06;5037125;28;45604;-79
2023/09/04 04:05:07;;;;;;;;;4.33;4.33;;;;;22.59;73.08;99876.56;5035494;28;45421;-80
2023/09/04 04:07:32;;;;;;;;;4.67;4.67;;;;;22.60;73.40;99874.75;5053639;28;45355;-79
2023/09/04 04:09:58;;;;;;;;;6.33;5.67;;;;;22.47;73.81;99876.94;5056670;28;46338;-79
2023/09/04 04:12:24;;;;;;;;;8.67;7.67;;;;;22.38;73.42;99864.78;5055498;28;45174;-79
2023/09/04 04:14:54;;;;;;;;;6.00;5.00;;;;;22.54;73.28;99878.50;5036978;28;45486;-79
2023/09/04 04:17:20;;;;;;;;;6.67;5.00;;;;;22.57;72.92;99873.06;5037355;28;45840;-79
2023/09/04 04:19:45;;;;;;;;;5.33;5.33;;;;;22.54;73.02;99881.16;5048504;28;45343;-79
2023/09/04 04:22:11;;;;;;;;;6.00;5.00;;;;;22.41;73.03;99864.69;5040285;28;45512;-79
2023/09/04 04:24:36;;;;;;;;;6.33;5.00;;;;;22.56;73.54;99876.66;5040553;28;45528;-79
2023/09/04 04:27:02;;;;;;;;;6.67;6.33;;;;;22.57;73.21;99880.19;5020140;28;45624;-79
2023/09/04 04:29:28;;;;;;;;;5.33;5.33;;;;;22.37;73.23;99841.75;5036200;28;46105;-79
2023/09/04 04:31:53;;;;;;;;;7.67;5.00;;;;;22.60;73.10;99894.28;5036129;28;45474;-79
2023/09/04 04:34:19;;;;;;;;;6.00;5.67;;;;;22.50;73.07;99878.63;5047150;28;45308;-79
2023/09/04 04:36:45;;;;;;;;;8.00;8.00;;;;;22.63;72.77;99882.66;5041860;28;45636;-79
2023/09/04 04:39:10;;;;;;;;;6.00;5.67;;;;;22.63;72.63;99896.84;5038522;28;46042;-79
2023/09/04 04:41:36;;;;;;;;;6.00;6.00;;;;;22.64;72.90;99887.97;5050163;28;45501;-80
2023/09/04 04:44:01;;;;;;;;;11.33;11.00;;;;;22.68;72.72;99888.75;5036420;28;45469;-79
2023/09/04 04:46:27;;;;;;;;;6.67;6.67;;;;;22.69;73.09;99890.47;5036736;28;45470;-79
2023/09/04 04:48:53;;;;;;;;;7.00;7.00;;;;;22.58;72.72;99863.28;5051891;28;45405;-80
2023/09/04 04:51:18;;;;;;;;;6.67;6.00;;;;;22.71;73.13;99888.63;5036609;28;45319;-79
2023/09/04 04:53:44;;;;;;;;;9.00;7.00;;;;;22.63;72.67;99864.03;5036402;28;45784;-79
2023/09/04 04:56:10;;;;;;;;;9.00;8.33;;;;;22.67;72.76;99875.47;5036719;28;45524;-79
2023/09/04 04:58:35;;;;;;;;;5.33;5.00;;;;;22.71;72.86;99858.47;5036267;28;45513;-79
2023/09/04 05:01:01;;;;;;;;;6.67;6.67;;;;;22.79;72.81;99885.75;5036158;28;45428;-79
2023/09/04 05:03:27;;;;;;;;;6.00;5.00;;;;;22.72;72.61;99871.75;5048605;28;45393;-79
2023/09/04 05:05:52;;;;;;;;;6.67;6.67;;;;;22.80;72.01;99869.72;5056803;28;45500;-79
2023/09/04 05:08:18;;;;;;;;;8.00;7.00;;;;;22.87;71.96;99883.69;5045798;28;45643;-79
2023/09/04 05:10:43;;;;;;;;;7.00;6.67;;;;;22.90;72.35;99878.28;5039733;28;45399;-79
2023/09/04 05:13:09;;;;;;;;;7.00;7.00;;;;;22.82;72.20;99883.84;5037737;28;45612;-79
2023/09/04 05:15:35;;;;;;;;;6.67;5.00;;;;;22.78;73.15;99876.88;5058092;28;45573;-79
2023/09/04 05:18:00;;;;;;;;;6.67;6.67;;;;;22.80;72.96;99879.47;5057494;28;46017;-79
2023/09/04 05:20:26;;;;;;;;;9.00;8.33;;;;;22.72;72.56;99866.44;5057273;28;45434;-78
2023/09/04 05:22:52;;;;;;;;;7.67;5.67;;;;;22.88;72.25;99890.78;5054716;28;46922;-78
2023/09/04 05:25:18;;;;;;;;;5.33;5.33;;;;;22.77;72.13;99851.16;5055145;28;45548;-78
2023/09/04 05:27:45;;;;;;;;;8.00;6.33;;;;;22.77;72.33;99867.13;5056112;28;45524;-79
2023/09/04 05:30:11;;;;;;;;;9.00;7.00;;;;;22.87;72.19;99886.38;5047758;28;45533;-79
2023/09/04 05:32:37;;;;;;;;;5.67;4.00;;;;;22.84;72.10;99875.81;5025156;28;45337;-79
2023/09/04 05:35:02;;;;;;;;;5.00;5.00;;;;;22.83;72.40;99866.94;5053129;28;45385;-79
2023/09/04 05:37:28;;;;;;;;;6.33;5.67;;;;;22.85;72.04;99877.56;5041504;28;45652;-79
2023/09/04 05:39:54;;;;;;;;;9.00;7.67;;;;;22.83;71.74;99860.75;5041333;28;45466;-78
2023/09/04 05:42:19;;;;;;;;;11.67;10.67;;;;;22.92;71.72;99876.47;5053736;28;45454;-79
2023/09/04 05:44:45;;;;;;;;;5.33;5.33;;;;;22.95;71.54;99871.00;5043199;28;45735;-79
2023/09/04 05:47:11;;;;;;;;;6.33;6.33;;;;;22.83;72.84;99876.72;5051703;28;45928;-79
2023/09/04 05:49:36;;;;;;;;;6.00;5.33;;;;;22.86;72.51;99881.09;5041545;28;45453;-78
2023/09/04 05:52:02;;;;;;;;;6.00;5.33;;;;;22.86;72.11;99865.09;5042091;28;45327;-79
2023/09/04 05:54:28;;;;;;;;;6.00;5.00;;;;;22.88;72.46;99858.84;5054647;28;45308;-79
2023/09/04 05:56:54;;;;;;;;;6.33;6.00;;;;;22.87;72.45;99850.88;5041594;28;45346;-79
2023/09/04 05:59:19;;;;;;;;;6.33;6.00;;;;;22.95;72.34;99848.84;5050973;28;46347;-79
2023/09/04 06:01:45;;;;;;;;;5.00;4.67;;;;;23.10;71.95;99871.47;5058473;28;45627;-79
2023/09/04 06:04:11;;;;;;;;;5.67;5.33;;;;;23.08;71.61;99852.91;5058398;28;46359;-79
2023/09/04 06:06:38;;;;;;;;;6.00;6.00;;;;;22.98;71.87;99848.75;5055958;28;45393;-78
2023/09/04 06:09:06;;;;;;;;;6.33;6.00;;;;;23.11;71.80;99871.44;5056822;28;46645;-78
2023/09/04 06:11:32;;;;;;;;;5.33;5.00;;;;;23.10;71.48;99859.03;5054387;28;45414;-79
2023/09/04 06:13:57;;;;;;;;;6.33;5.33;;;;;23.19;71.17;99857.84;5044200;28;45434;-79
2023/09/04 06:16:23;;;;;;;;;23.00;19.33;;;;;23.24;71.54;99871.91;5041333;28;45490;-78
2023/09/04 06:18:49;;;;;;;;;7.00;6.67;;;;;23.11;70.94;99855.44;5057968;28;45537;-78
2023/09/04 06:21:14;;;;;;;;;7.00;6.00;;;;;23.26;70.58;99879.84;5047092;28;45324;-78
2023/09/04 06:23:40;;;;;;;;;9.00;7.33;;;;;23.34;71.05;99883.16;5042692;28;45742;-78
2023/09/04 06:26:06;;;;;;;;;6.33;5.33;;;;;23.32;71.07;99874.31;5056071;28;46180;-78
2023/09/04 06:28:31;;;;;;;;;7.00;6.67;;;;;23.29;70.61;99869.94;5055174;28;45559;-77
2023/09/04 06:30:57;;;;;;;;;5.00;4.67;;;;;23.41;71.01;99884.66;5052858;28;45565;-78
2023/09/04 06:33:26;;;;;;;;;5.00;5.00;;;;;23.46;70.54;99876.50;5042294;28;45529;-77
2023/09/04 06:35:52;;;;;;;;;6.00;5.00;;;;;23.57;70.62;99869.88;5053844;28;45358;-74
2023/09/04 06:38:18;;;;;;;;;5.00;5.00;;;;;23.59;70.24;99876.03;5057060;28;45551;-75
2023/09/04 06:40:43;;;;;;;;;6.00;5.33;;;;;23.49;70.62;99863.94;5047666;28;45303;-75
2023/09/04 06:43:09;;;;;;;;;7.33;5.33;;;;;23.65;70.34;99866.09;5052428;28;45822;-75
2023/09/04 06:45:37;;;;;;;;;8.00;6.33;;;;;23.78;69.76;99883.44;5027476;28;45483;-75
2023/09/04 06:48:06;;;;;;;;;8.00;6.00;;;;;23.86;69.21;99888.53;5052423;28;45583;-73
2023/09/04 06:50:32;;;;;;;;;6.00;6.00;;;;;23.90;69.36;99891.00;5046342;28;45535;-73
2023/09/04 06:52:58;;;;;;;;;5.67;5.00;;;;;23.95;69.06;99881.03;5052472;28;45555;-75
2023/09/04 06:55:23;;;;;;;;;8.00;6.67;;;;;23.99;68.56;99884.47;5043552;28;46052;-76
2023/09/04 06:57:50;;;;;;;;;7.00;5.33;;;;;24.09;68.17;99887.69;5055888;28;45354;-75
2023/09/04 07:00:16;;;;;;;;;7.33;6.00;;;;;24.21;68.18;99908.56;5057006;28;45820;-74
2023/09/04 07:02:41;;;;;;;;;6.00;5.00;;;;;24.07;66.78;99887.72;5057340;28;45401;-74
2023/09/04 07:05:08;;;;;;;;;8.00;6.00;;;;;24.24;67.56;99894.25;5057304;28;45453;-74
2023/09/04 07:07:37;;;;;;;;;7.33;6.00;;;;;24.38;67.22;99897.28;5056423;28;45510;-76
2023/09/04 07:10:06;;;;;;;;;8.33;7.67;;;;;24.54;66.91;99910.97;5056817;28;46269;-76
2023/09/04 07:12:34;;;;;;;;;7.67;7.00;;;;;24.59;67.21;99904.53;5045199;28;45445;-78
2023/09/04 07:15:00;;;;;;;;;7.00;7.00;;;;;24.63;66.95;99889.25;5037237;28;45383;-75
2023/09/04 07:17:25;;;;;;;;;7.00;6.00;;;;;24.83;66.89;99907.19;5046000;28;47028;-76
2023/09/04 07:19:51;;;;;;;;;6.33;5.33;;;;;24.92;66.61;99897.94;5054820;28;45526;-78
2023/09/04 07:22:17;;;;;;;;;3.33;3.33;;;;;25.02;66.43;99908.16;5048075;28;45481;-77
2023/09/04 07:24:42;;;;;;;;;7.00;5.00;;;;;25.06;65.17;99889.34;5050723;28;46266;-77
2023/09/04 07:27:08;;;;;;;;;7.00;6.00;;;;;24.93;65.13;99856.91;5056393;28;45599;-76
2023/09/04 07:29:33;;;;;;;;;6.33;5.00;;;;;25.18;65.24;99887.03;5056362;28;45506;-75
2023/09/04 07:32:00;;;;;;;;;8.00;5.00;;;;;25.22;65.00;99881.63;5041841;28;45454;-76
2023/09/04 07:34:26;;;;;;;;;5.00;4.00;;;;;25.39;64.37;99892.50;5048717;28;45354;-75
2023/09/04 07:36:52;;;;;;;;;3.00;3.00;;;;;25.47;62.96;99889.50;5057804;28;45327;-76
2023/09/04 07:39:18;;;;;;;;;6.67;6.33;;;;;25.53;62.38;99865.16;5057944;28;45362;-76
2023/09/04 07:41:44;;;;;;;;;4.67;4.00;;;;;25.73;62.98;99883.03;5057822;28;45519;-76
2023/09/04 07:44:09;;;;;;;;;6.00;4.67;;;;;25.81;62.85;99880.88;5039195;28;45635;-76
2023/09/04 07:46:35;;;;;;;;;6.00;5.67;;;;;25.87;62.52;99882.44;5049712;28;45458;-75
2023/09/04 07:49:00;;;;;;;;;5.33;5.00;;;;;26.02;62.96;99892.47;5040075;28;45292;-76
2023/09/04 07:51:26;;;;;;;;;8.00;6.00;;;;;26.22;62.51;99888.03;5037244;28;45495;-75
2023/09/04 07:53:52;;;;;;;;;6.00;5.00;;;;;26.45;62.69;99879.81;5018645;28;45282;-76
2023/09/04 07:56:17;;;;;;;;;6.00;6.00;;;;;26.64;62.49;99887.91;5037078;28;45419;-75
2023/09/04 07:58:44;;;;;;;;;7.00;5.33;;;;;26.78;62.15;99881.91;5036537;28;45382;-76
2023/09/04 08:01:15;;;;;;;;;6.00;6.00;;;;;26.81;60.99;99871.03;5037173;28;45453;-76
2023/09/04 08:03:43;;;;;;;;;4.67;4.00;;;;;27.02;59.67;99876.28;5036242;28;45333;-76
2023/09/04 08:06:09;;;;;;;;;5.00;5.00;;;;;27.23;60.29;99885.09;5036302;28;45549;-76
2023/09/04 08:08:34;;;;;;;;;7.67;6.33;;;;;27.43;59.56;99893.03;5036660;28;45896;-75
2023/09/04 08:11:00;;;;;;;;;6.00;6.00;;;;;27.54;60.01;99900.56;5041328;28;45518;-76
2023/09/04 08:13:26;;;;;;;;;6.00;6.00;;;;;27.69;60.32;99910.47;5046560;28;45552;-75
2023/09/04 08:15:51;;;;;;;;;5.67;3.67;;;;;27.78;57.79;99898.44;5036209;28;45568;-75
2023/09/04 08:18:17;;;;;;;;;6.00;5.00;;;;;28.00;58.08;99908.09;5052323;28;45508;-76
2023/09/04 08:20:42;;;;;;;;;7.67;6.00;;;;;28.13;59.32;99911.84;5056172;28;45364;-76
2023/09/04 08:23:11;;;;;;;;;7.33;7.00;;;;;28.50;58.71;99923.31;5042022;28;46010;-75
2023/09/04 08:25:37;;;;;;;;;8.00;6.00;;;;;29.03;56.82;99915.91;5035964;28;45308;-75
2023/09/04 08:28:03;;;;;;;;;7.67;5.00;;;;;29.52;54.83;99908.59;5035876;28;45487;-76
2023/09/04 08:30:30;;;;;;;;;6.67;6.00;;;;;29.80;54.79;99912.38;5035323;28;45546;-75
2023/09/04 08:32:57;;;;;;;;;7.33;6.00;;;;;30.33;54.77;99932.50;5037793;28;45480;-76
2023/09/04 08:35:24;;;;;;;;;6.33;5.33;;;;;30.65;50.86;99910.75;5037219;28;45452;-76
2023/09/04 08:37:50;;;;;;;;;5.00;4.67;;;;;30.87;50.69;99914.75;5037869;28;45220;-76
2023/09/04 08:40:17;;;;;;;;;6.00;6.00;;;;;31.25;49.31;99925.75;5036264;28;45518;-76
2023/09/04 08:42:46;;;;;;;;;3.33;3.33;;;;;31.52;49.56;99923.09;5037438;28;46090;-76
2023/09/04 08:45:16;;;;;;;;;4.33;4.33;;;;;31.63;46.89;99935.00;5019487;28;46120;-75
2023/09/04 08:47:43;;;;;;;;;8.33;8.00;;;;;31.62;45.60;99930.59;5037048;28;45532;-75
2023/09/04 08:50:12;;;;;;;;;5.00;4.67;;;;;31.49;44.86;99922.44;5038022;28;45629;-76
2023/09/04 08:52:38;;;;;;;;;4.33;4.33;;;;;31.54;45.34;99914.91;5035872;28;45968;-76
2023/09/04 08:55:05;;;;;;;;;8.00;5.00;;;;;31.84;43.90;99914.66;5035976;28;45306;-75
2023/09/04 08:57:32;;;;;;;;;6.67;5.00;;;;;32.12;42.92;99917.31;5036291;28;45223;-75
2023/09/04 08:59:58;;;;;;;;;6.00;5.00;;;;;32.39;43.33;99918.06;5035660;28;45431;-75
2023/09/04 09:02:25;;;;;;;;;4.67;4.67;;;;;32.43;42.24;99908.75;5035881;28;45526;-75
2023/09/04 09:04:52;;;;;;;;;5.67;3.33;;;;;32.61;42.72;99922.84;5036328;28;45403;-75
2023/09/04 09:07:20;;;;;;;;;4.00;4.00;;;;;33.05;42.12;99920.56;5050820;28;45536;-75
2023/09/04 09:09:50;;;;;;;;;4.33;4.33;;;;;33.39;41.24;99916.22;5036054;28;45484;-76
2023/09/04 09:12:15;;;;;;;;;5.67;4.67;;;;;33.67;40.48;99922.28;5036021;28;45778;-75
2023/09/04 09:14:41;;;;;;;;;5.00;4.00;;;;;33.86;41.09;99921.72;5035678;28;45788;-75
2023/09/04 09:17:13;;;;;;;;;3.67;3.67;;;;;34.19;40.16;99923.69;5035925;28;45480;-75
2023/09/04 09:19:40;;;;;;;;;6.00;5.00;;;;;34.47;40.05;99926.91;5035387;28;45418;-76
2023/09/04 09:22:16;;;;;;;;;4.00;3.00;;;;;34.73;39.98;99921.25;5044279;28;45706;-76
2023/09/04 09:24:56;;;;;;;;;4.33;4.00;;;;;35.09;39.16;99919.22;5035227;28;45634;-75
2023/09/04 09:27:30;;;;;;;;;7.00;4.67;;;;;35.20;37.80;99919.25;5035950;28;45492;-75
2023/09/04 09:30:00;;;;;;;;;3.67;3.00;;;;;35.32;37.46;99912.78;5036150;28;45372;-76
2023/09/04 09:32:31;;;;;;;;;4.00;3.00;;;;;35.38;39.08;99914.13;5033913;28;45629;-75
2023/09/04 09:35:00;;;;;;;;;5.00;4.00;;;;;35.30;38.22;99897.63;5035259;28;45473;-75
2023/09/04 09:37:31;;;;;;;;;5.00;4.00;;;;;35.47;37.92;99923.34;5051407;28;45505;-75
2023/09/04 09:39:57;;;;;;;;;4.67;4.00;;;;;35.50;37.83;99909.53;5035395;28;45431;-76
2023/09/04 09:42:24;;;;;;;;;5.00;4.67;;;;;35.58;37.45;99901.56;5016789;28;45433;-76
2023/09/04 09:44:53;;;;;;;;;5.00;3.67;;;;;35.47;37.30;99920.63;5050876;28;45277;-75
2023/09/04 09:47:21;;;;;;;;;5.33;4.00;;;;;35.31;37.81;99911.03;5038691;28;45431;-75
2023/09/04 09:49:46;;;;;;;;;5.67;3.33;;;;;35.19;37.56;99920.22;5051167;28;45689;-75
2023/09/04 09:52:13;;;;;;;;;4.67;4.33;;;;;35.02;37.05;99910.75;5038298;28;46034;-75
2023/09/04 09:54:44;;;;;;;;;4.67;3.33;;;;;34.88;36.80;99903.75;5039029;28;45292;-75
2023/09/04 09:57:15;;;;;;;;;4.00;4.00;;;;;34.76;37.22;99889.31;5038939;28;45422;-76
2023/09/04 09:59:43;;;;;;;;;4.00;3.00;;;;;34.76;37.34;99888.44;5039217;28;45697;-76
2023/09/04 10:02:09;;;;;;;;;3.33;3.00;;;;;34.85;37.31;99902.13;5037991;28;45431;-76
2023/09/04 10:04:36;;;;;;;;;6.33;4.67;;;;;34.76;37.47;99900.19;5046409;28;45536;-75
2023/09/04 10:07:04;;;;;;;;;6.00;4.67;;;;;34.70;37.42;99887.13;5046806;28;45622;-75
2023/09/04 10:09:59;;;;;;;;;6.33;4.00;;;;;34.78;37.99;99884.63;5054622;28;45456;-75
2023/09/04 10:12:49;;;;;;;;;4.67;4.00;;;;;35.13;37.53;99885.41;5038330;28;46119;-75
2023/09/04 10:15:24;;;;;;;;;5.00;5.00;;;;;35.41;37.10;99882.13;5038514;28;45533;-75
2023/09/04 10:18:01;;;;;;;;;4.67;4.33;;;;;35.70;37.55;99884.25;5038805;28;45454;-75
2023/09/04 10:20:27;;;;;;;;;5.00;5.00;;;;;36.04;36.16;99882.19;5038626;28;45225;-75
2023/09/04 10:23:09;;;;;;;;;4.00;3.33;;;;;36.34;36.34;99880.50;5038683;28;45374;-77
2023/09/04 10:26:15;;;;;;;;;4.33;4.00;;;;;36.52;36.55;99879.88;5039370;28;45481;-75
2023/09/04 10:28:49;;;;;;;;;5.00;4.00;;;;;36.73;36.14;99880.69;5038783;28;45391;-75
2023/09/04 10:31:15;;;;;;;;;6.67;6.00;;;;;36.67;35.44;99878.53;5039039;28;45450;-75
2023/09/04 10:33:42;;;;;;;;;2.67;0.00;;;;;36.73;35.10;99877.09;5038366;28;47055;-75
2023/09/04 10:36:08;;;;;;;;;7.00;5.33;;;;;36.66;35.46;99870.50;5038624;28;45390;-75
2023/09/04 10:38:36;;;;;;;;;6.67;5.67;;;;;36.67;35.33;99867.66;5038598;28;45288;-75
2023/09/04 10:41:07;;;;;;;;;5.00;4.00;;;;;36.65;35.07;99861.47;5039989;28;45470;-74
2023/09/04 10:43:40;;;;;;;;;6.00;6.00;;;;;36.58;35.65;99855.69;5051813;28;45453;-76
2023/09/04 10:46:08;;;;;;;;;8.00;8.00;;;;;36.66;35.62;99855.03;5038239;28;45429;-76
2023/09/04 10:48:43;;;;;;;;;3.00;2.33;;;;;36.63;35.79;99850.72;5054093;28;45204;-76
2023/09/04 10:51:37;;;;;;;;;7.33;6.00;;;;;36.64;35.58;99857.03;5053300;28;45402;-75
2023/09/04 10:54:26;;;;;;;;;5.00;4.00;;;;;36.67;35.65;99862.19;5037378;28;45522;-75
2023/09/04 10:57:00;;;;;;;;;8.00;6.33;;;;;36.66;36.33;99855.03;5052146;28;45410;-76
2023/09/04 10:59:27;;;;;;;;;5.33;5.00;;;;;36.49;35.18;99861.09;5037974;28;45482;-76
2023/09/04 11:01:53;;;;;;;;;7.67;6.33;;;;;36.53;35.93;99841.66;5046124;28;45428;-76
2023/09/04 11:04:34;;;;;;;;;4.00;4.00;;;;;36.57;36.12;99862.13;5045348;28;45928;-75
2023/09/04 11:07:21;;;;;;;;;6.00;5.00;;;;;36.68;35.45;99855.75;5037842;28;45481;-75
2023/09/04 11:09:59;;;;;;;;;5.33;5.00;;;;;36.62;36.83;99842.66;5038044;28;45467;-75
2023/09/04 11:12:26;;;;;;;;;7.00;5.67;;;;;36.53;39.67;99859.81;5039231;28;45458;-75
2023/09/04 11:14:54;;;;;;;;;8.67;7.67;;;;;36.76;39.65;99857.78;5044615;28;46214;-75
2023/09/04 11:17:28;;;;;;;;;6.00;6.00;;;;;36.41;40.43;99849.06;5043082;28;45478;-76
2023/09/04 11:19:54;;;;;;;;;8.00;7.00;;;;;36.23;41.34;99864.25;5040160;28;45504;-75
2023/09/04 11:22:26;;;;;;;;;5.33;5.00;;;;;35.95;41.96;99854.94;5057665;28;45362;-75
2023/09/04 11:25:10;;;;;;;;;6.00;5.00;;;;;35.87;42.22;99866.47;5040749;28;45960;-74
2023/09/04 11:27:39;;;;;;;;;6.00;5.00;;;;;35.92;41.92;99863.38;5038501;28;46345;-75
2023/09/04 11:30:05;;;;;;;;;5.67;5.00;;;;;35.82;42.62;99864.16;5037959;28;45572;-74
2023/09/04 11:32:38;;;;;;;;;6.67;4.67;;;;;35.45;43.27;99859.16;5037866;28;45354;-74
2023/09/04 11:35:27;;;;;;;;;8.67;7.67;;;;;35.38;43.32;99854.38;5037796;28;46207;-75